LOWI/INN METAR and TAF weather

Enter ICAO airport designator
Station Type Date Time Source
LOWI METAR 2019/10/19 07:50 UTC NOAA

LOWI 190750Z 27006KT 220V320 9999 FEW050 SCT070 10/07 Q1013 NOSIG


Station Type Date Time Source
LOWI Decoded METAR 2019/10/19 07:50 UTC NOAA

Innsbruck-Flughafen, Austria (LOWI) 47-16N 011-21E 593M
Oct 19, 2019 - 03:50 AM EDT / 2019.10.19 0750 UTC
Wind: from the W (270 degrees) at 7 MPH (6 KT) (direction variable):0
Visibility: greater than 7 mile(s):0
Sky conditions: partly cloudy
Temperature: 50 F (10 C)
Dew Point: 44 F (7 C)
Relative Humidity: 81%
Pressure (altimeter): 29.91 in. Hg (1013 hPa)
ob: LOWI 190750Z 27006KT 220V320 9999 FEW050 SCT070 10/07 Q1013 NOSIG
cycle: 8

Station Type Date Time Source
LOWI TAF 2019/10/19 07:00 UTC NOAA

TAF
AMD LOWI 190758Z 1907/2006 27007KT 9999 FEW060 SCT120 TX21/1915Z TN10/2006Z
BECMG 1909/1911 10010G20KT
TEMPO 1909/1921 12015G35KT
BECMG 1917/1919 27007KT PROB40
TEMPO 1921/2006

Example: see airport list